Estestar — 3ECR8 — position and weather

sailwx.info

Track history (hours):
 
Tides and Currents Weather Stations Pressure Air Temp Water Temp Dewpoint Dewpoint Depression Visibility Wind Speed Wind Dir Waves Ship Positions

Estestar

Last reported at 2016-Aug-25 08:28 UTC. Time now 2016-Aug-27 08:15 UTC.
Position N 45°40' E 036°45'.

Length 133 m; draft 3.8 m.

Type: Cargo ship. MMSI: 371448000.

Date/timePositionNaut miles runAvg speedWind from/ knotsBaromVisibWave heightAir tempDewpointWater temp
2016-Aug-25 08:28N 45°40' E 036°45'1010.8
2016-Aug-25 07:34N 45°30' E 036°44'10 9.6
2016-Aug-25 06:34N 45°21' E 036°39'14 6.9
2016-Aug-25 04:33N 45°09' E 036°29'2 2.3
2016-Aug-25 03:33N 45°07' E 036°30'71 9.8
2016-Aug-24 20:17N 44°11' E 035°28'810.7
2016-Aug-24 19:32N 44°07' E 035°18'1010.6
2016-Aug-24 18:34N 44°02' E 035°06'1010.5
2016-Aug-24 17:34N 43°57' E 034°53'1010.5
2016-Aug-24 16:34N 43°52' E 034°40'309 6.3
2016-Aug-22 15:30N 40°58' E 028°54'0 0.1
2016-Aug-22 13:32N 40°58' E 028°54'0 0.0
2016-Aug-22 12:33N 40°58' E 028°54'0 0.0
2016-Aug-22 11:33N 40°58' E 028°54'0 0.0
2016-Aug-22 10:32N 40°58' E 028°54'0 0.0
2016-Aug-22 09:31N 40°58' E 028°54'0 0.0
2016-Aug-22 08:32N 40°58' E 028°54'0 0.1
2016-Aug-22 06:30N 40°58' E 028°54'4 0.9
2016-Aug-22 02:33N 40°55' E 028°58'10 9.5
2016-Aug-22 01:33N 40°51' E 028°47'269 9.2
2016-Aug-20 20:13N 37°47' E 024°32'3010.4
2016-Aug-20 17:22N 37°24' E 024°09'1010.1
2016-Aug-20 16:25N 37°18' E 023°59'9 9.8
2016-Aug-20 15:32N 37°12' E 023°51'9 9.4
2016-Aug-20 14:33N 37°07' E 023°42'1010.1
2016-Aug-20 13:33N 37°01' E 023°32'1110.6
2016-Aug-20 12:29N 36°52' E 023°23'  
2016-Aug-17 18:19N 44°30' E 012°25'6 8.3
2016-Aug-17 17:32N 44°29' E 012°16'2 0.1
2016-Aug-16 19:09N 44°27' E 012°15'0 0.0
2016-Aug-16 18:12N 44°27' E 012°15'0 0.0
2016-Aug-16 17:33N 44°27' E 012°15'0 0.0
2016-Aug-16 16:18N 44°27' E 012°15'0 0.0
2016-Aug-16 15:33N 44°27' E 012°15'11 1.0
2016-Aug-16 04:33N 44°30' E 012°29'0 0.0
2016-Aug-16 03:27N 44°30' E 012°29'0 0.0
2016-Aug-16 02:33N 44°30' E 012°29'0 0.0
2016-Aug-16 01:30N 44°30' E 012°29'0 0.1
2016-Aug-16 00:33N 44°30' E 012°29'0 0.0
2016-Aug-15 23:33N 44°30' E 012°29'0 0.0
2016-Aug-15 22:30N 44°30' E 012°29'0 0.0
2016-Aug-15 20:24N 44°30' E 012°29'0 0.0
2016-Aug-15 19:30N 44°30' E 012°29'0 0.0
2016-Aug-15 18:33N 44°30' E 012°29'0 0.0
2016-Aug-15 17:33N 44°30' E 012°29'0 0.0
2016-Aug-15 16:33N 44°30' E 012°29'0 0.0
2016-Aug-15 15:30N 44°30' E 012°29'0 0.0
2016-Aug-15 14:33N 44°30' E 012°29'0 0.0
2016-Aug-15 13:30N 44°30' E 012°29'0 0.0
2016-Aug-15 12:33N 44°30' E 012°29'1 0.6
2016-Aug-15 11:33N 44°29' E 012°29'8 8.3
2016-Aug-15 10:33N 44°26' E 012°40'1110.6
2016-Aug-15 09:33N 44°23' E 012°54'1010.4
2016-Aug-15 08:33N 44°19' E 013°08'  
Track history (hours):
 
Tides and Currents Weather Stations Pressure Air Temp Water Temp Dewpoint Dewpoint Depression Visibility Wind Speed Wind Dir Waves Ship Positions

Estestar

Last reported at 2016-Aug-25 08:28 UTC. Time now 2016-Aug-27 08:15 UTC.
Position N 45°40' E 036°45'.

Length 133 m; draft 3.8 m.

Type: Cargo ship. MMSI: 371448000.

Date/timePositionNaut miles runAvg speedWind from/ knotsBaromVisibWave heightAir tempDewpointWater temp
2016-Aug-25 08:28N 45°40' E 036°45'1010.8
2016-Aug-25 07:34N 45°30' E 036°44'10 9.6
2016-Aug-25 06:34N 45°21' E 036°39'14 6.9
2016-Aug-25 04:33N 45°09' E 036°29'2 2.3
2016-Aug-25 03:33N 45°07' E 036°30'71 9.8
2016-Aug-24 20:17N 44°11' E 035°28'810.7
2016-Aug-24 19:32N 44°07' E 035°18'1010.6
2016-Aug-24 18:34N 44°02' E 035°06'1010.5
2016-Aug-24 17:34N 43°57' E 034°53'1010.5
2016-Aug-24 16:34N 43°52' E 034°40'309 6.3
2016-Aug-22 15:30N 40°58' E 028°54'0 0.1
2016-Aug-22 13:32N 40°58' E 028°54'0 0.0
2016-Aug-22 12:33N 40°58' E 028°54'0 0.0
2016-Aug-22 11:33N 40°58' E 028°54'0 0.0
2016-Aug-22 10:32N 40°58' E 028°54'0 0.0
2016-Aug-22 09:31N 40°58' E 028°54'0 0.0
2016-Aug-22 08:32N 40°58' E 028°54'0 0.1
2016-Aug-22 06:30N 40°58' E 028°54'4 0.9
2016-Aug-22 02:33N 40°55' E 028°58'10 9.5
2016-Aug-22 01:33N 40°51' E 028°47'269 9.2
2016-Aug-20 20:13N 37°47' E 024°32'3010.4
2016-Aug-20 17:22N 37°24' E 024°09'1010.1
2016-Aug-20 16:25N 37°18' E 023°59'9 9.8
2016-Aug-20 15:32N 37°12' E 023°51'9 9.4
2016-Aug-20 14:33N 37°07' E 023°42'1010.1
2016-Aug-20 13:33N 37°01' E 023°32'1110.6
2016-Aug-20 12:29N 36°52' E 023°23'  
2016-Aug-17 18:19N 44°30' E 012°25'6 8.3
2016-Aug-17 17:32N 44°29' E 012°16'2 0.1
2016-Aug-16 19:09N 44°27' E 012°15'0 0.0
2016-Aug-16 18:12N 44°27' E 012°15'0 0.0
2016-Aug-16 17:33N 44°27' E 012°15'0 0.0
2016-Aug-16 16:18N 44°27' E 012°15'0 0.0
2016-Aug-16 15:33N 44°27' E 012°15'11 1.0
2016-Aug-16 04:33N 44°30' E 012°29'0 0.0
2016-Aug-16 03:27N 44°30' E 012°29'0 0.0
2016-Aug-16 02:33N 44°30' E 012°29'0 0.0
2016-Aug-16 01:30N 44°30' E 012°29'0 0.1
2016-Aug-16 00:33N 44°30' E 012°29'0 0.0
2016-Aug-15 23:33N 44°30' E 012°29'0 0.0
2016-Aug-15 22:30N 44°30' E 012°29'0 0.0
2016-Aug-15 20:24N 44°30' E 012°29'0 0.0
2016-Aug-15 19:30N 44°30' E 012°29'0 0.0
2016-Aug-15 18:33N 44°30' E 012°29'0 0.0
2016-Aug-15 17:33N 44°30' E 012°29'0 0.0
2016-Aug-15 16:33N 44°30' E 012°29'0 0.0
2016-Aug-15 15:30N 44°30' E 012°29'0 0.0
2016-Aug-15 14:33N 44°30' E 012°29'0 0.0
2016-Aug-15 13:30N 44°30' E 012°29'0 0.0
2016-Aug-15 12:33N 44°30' E 012°29'1 0.6
2016-Aug-15 11:33N 44°29' E 012°29'8 8.3
2016-Aug-15 10:33N 44°26' E 012°40'1110.6
2016-Aug-15 09:33N 44°23' E 012°54'1010.4
2016-Aug-15 08:33N 44°19' E 013°08'  

Dump ship's entire track history